sensor_id;sensor_type;location;lat;lon;timestamp;temperature;humidity
46378;DHT22;32083;47.360;9.650;2023-09-19T00:00:07;17.20;99.90
46378;DHT22;32083;47.360;9.650;2023-09-19T00:06:04;17.30;99.90
46378;DHT22;32083;47.360;9.650;2023-09-19T00:08:56;17.20;99.90
46378;DHT22;32083;47.360;9.650;2023-09-19T00:11:44;17.20;99.90
46378;DHT22;32083;47.360;9.650;2023-09-19T00:14:51;17.10;99.90
46378;DHT22;32083;47.360;9.650;2023-09-19T00:25:01;17.10;99.90
46378;DHT22;32083;47.360;9.650;2023-09-19T00:28:19;17.10;99.90
46378;DHT22;32083;47.360;9.650;2023-09-19T00:34:01;17.00;99.90
46378;DHT22;32083;47.360;9.650;2023-09-19T00:37:08;17.10;99.90
46378;DHT22;32083;47.360;9.650;2023-09-19T01:05:16;17.10;99.90
46378;DHT22;32083;47.360;9.650;2023-09-19T01:08:18;17.10;99.90
46378;DHT22;32083;47.360;9.650;2023-09-19T01:17:43;17.10;99.90
46378;DHT22;32083;47.360;9.650;2023-09-19T01:20:29;17.10;99.90
46378;DHT22;32083;47.360;9.650;2023-09-19T01:35:18;17.10;99.90
46378;DHT22;32083;47.360;9.650;2023-09-19T01:43:52;17.00;99.90
46378;DHT22;32083;47.360;9.650;2023-09-19T01:46:25;17.00;99.90
46378;DHT22;32083;47.360;9.650;2023-09-19T02:02:45;16.90;99.90
46378;DHT22;32083;47.360;9.650;2023-09-19T02:05:40;16.90;99.90
46378;DHT22;32083;47.360;9.650;2023-09-19T02:09:02;16.90;99.90
46378;DHT22;32083;47.360;9.650;2023-09-19T02:12:07;16.90;99.90
46378;DHT22;32083;47.360;9.650;2023-09-19T02:18:12;16.90;99.90
46378;DHT22;32083;47.360;9.650;2023-09-19T02:30:04;17.00;99.90
46378;DHT22;32083;47.360;9.650;2023-09-19T02:32:53;17.00;99.90
46378;DHT22;32083;47.360;9.650;2023-09-19T02:36:33;17.00;99.90
46378;DHT22;32083;47.360;9.650;2023-09-19T02:43:07;17.10;99.90
46378;DHT22;32083;47.360;9.650;2023-09-19T02:49:08;17.00;99.90
46378;DHT22;32083;47.360;9.650;2023-09-19T02:51:50;17.00;99.90
46378;DHT22;32083;47.360;9.650;2023-09-19T02:54:58;17.00;99.90
46378;DHT22;32083;47.360;9.650;2023-09-19T02:58:20;16.90;99.90
46378;DHT22;32083;47.360;9.650;2023-09-19T03:04:10;16.90;99.90
46378;DHT22;32083;47.360;9.650;2023-09-19T03:07:49;16.90;99.90
46378;DHT22;32083;47.360;9.650;2023-09-19T03:10:15;16.90;99.90
46378;DHT22;32083;47.360;9.650;2023-09-19T03:16:41;16.90;99.90
46378;DHT22;32083;47.360;9.650;2023-09-19T03:19:23;17.00;99.90
46378;DHT22;32083;47.360;9.650;2023-09-19T03:22:00;17.00;99.90
46378;DHT22;32083;47.360;9.650;2023-09-19T03:24:33;17.00;99.90
46378;DHT22;32083;47.360;9.650;2023-09-19T03:30:16;17.00;99.90
46378;DHT22;32083;47.360;9.650;2023-09-19T03:33:17;16.90;99.90
46378;DHT22;32083;47.360;9.650;2023-09-19T03:36:31;17.00;99.90
46378;DHT22;32083;47.360;9.650;2023-09-19T03:39:17;16.90;99.90
46378;DHT22;32083;47.360;9.650;2023-09-19T03:41:50;17.00;99.90
46378;DHT22;32083;47.360;9.650;2023-09-19T03:44:49;17.00;99.90
46378;DHT22;32083;47.360;9.650;2023-09-19T03:47:43;16.90;99.90
46378;DHT22;32083;47.360;9.650;2023-09-19T03:50:32;16.90;99.90
46378;DHT22;32083;47.360;9.650;2023-09-19T03:53:14;16.90;99.90
46378;DHT22;32083;47.360;9.650;2023-09-19T03:55:57;16.80;99.90
46378;DHT22;32083;47.360;9.650;2023-09-19T04:02:03;16.70;99.90
46378;DHT22;32083;47.360;9.650;2023-09-19T04:04:38;16.80;99.90
46378;DHT22;32083;47.360;9.650;2023-09-19T04:07:09;16.80;99.90
46378;DHT22;32083;47.360;9.650;2023-09-19T04:10:20;16.80;99.90
46378;DHT22;32083;47.360;9.650;2023-09-19T04:13:14;16.80;99.90
46378;DHT22;32083;47.360;9.650;2023-09-19T04:19:37;16.80;99.90
46378;DHT22;32083;47.360;9.650;2023-09-19T04:22:11;16.70;99.90
46378;DHT22;32083;47.360;9.650;2023-09-19T04:24:56;16.80;99.90
46378;DHT22;32083;47.360;9.650;2023-09-19T04:28:04;16.80;99.90
46378;DHT22;32083;47.360;9.650;2023-09-19T04:31:18;16.80;99.90
46378;DHT22;32083;47.360;9.650;2023-09-19T04:33:57;16.80;99.90
46378;DHT22;32083;47.360;9.650;2023-09-19T04:36:29;16.80;99.90
46378;DHT22;32083;47.360;9.650;2023-09-19T04:38:55;16.80;99.90
46378;DHT22;32083;47.360;9.650;2023-09-19T04:41:21;16.80;99.90
46378;DHT22;32083;47.360;9.650;2023-09-19T04:43:48;16.90;99.90
46378;DHT22;32083;47.360;9.650;2023-09-19T04:46:16;16.90;99.90
46378;DHT22;32083;47.360;9.650;2023-09-19T04:48:43;16.90;99.90
46378;DHT22;32083;47.360;9.650;2023-09-19T04:51:09;16.90;99.90
46378;DHT22;32083;47.360;9.650;2023-09-19T04:53:36;16.90;99.90
46378;DHT22;32083;47.360;9.650;2023-09-19T04:56:02;16.90;99.90
46378;DHT22;32083;47.360;9.650;2023-09-19T04:58:29;16.90;99.90
46378;DHT22;32083;47.360;9.650;2023-09-19T05:00:55;16.90;99.90
46378;DHT22;32083;47.360;9.650;2023-09-19T05:03:22;16.80;99.90
46378;DHT22;32083;47.360;9.650;2023-09-19T05:05:48;16.80;99.90
46378;DHT22;32083;47.360;9.650;2023-09-19T05:08:15;16.80;99.90
46378;DHT22;32083;47.360;9.650;2023-09-19T05:10:41;16.80;99.90
46378;DHT22;32083;47.360;9.650;2023-09-19T05:13:07;16.70;99.90
46378;DHT22;32083;47.360;9.650;2023-09-19T05:15:33;16.70;99.90
46378;DHT22;32083;47.360;9.650;2023-09-19T05:17:59;16.70;99.90
46378;DHT22;32083;47.360;9.650;2023-09-19T05:20:25;16.80;99.90
46378;DHT22;32083;47.360;9.650;2023-09-19T05:23:03;16.80;99.90
46378;DHT22;32083;47.360;9.650;2023-09-19T05:25:35;16.70;99.90
46378;DHT22;32083;47.360;9.650;2023-09-19T05:28:09;16.70;99.90
46378;DHT22;32083;47.360;9.650;2023-09-19T05:30:37;16.70;99.90
46378;DHT22;32083;47.360;9.650;2023-09-19T05:33:06;16.70;99.90
46378;DHT22;32083;47.360;9.650;2023-09-19T05:35:32;16.70;99.90
46378;DHT22;32083;47.360;9.650;2023-09-19T05:37:58;16.80;99.90
46378;DHT22;32083;47.360;9.650;2023-09-19T05:40:25;16.80;99.90
46378;DHT22;32083;47.360;9.650;2023-09-19T05:42:51;16.80;99.90
46378;DHT22;32083;47.360;9.650;2023-09-19T05:45:17;16.90;99.90
46378;DHT22;32083;47.360;9.650;2023-09-19T05:47:51;16.90;99.90
46378;DHT22;32083;47.360;9.650;2023-09-19T05:50:17;16.90;99.90
46378;DHT22;32083;47.360;9.650;2023-09-19T05:52:54;16.80;99.90
46378;DHT22;32083;47.360;9.650;2023-09-19T05:55:21;16.90;99.90
46378;DHT22;32083;47.360;9.650;2023-09-19T05:57:53;16.80;99.90
46378;DHT22;32083;47.360;9.650;2023-09-19T06:00:20;16.90;99.90
46378;DHT22;32083;47.360;9.650;2023-09-19T06:02:52;16.90;99.90
46378;DHT22;32083;47.360;9.650;2023-09-19T06:05:19;16.90;99.90
46378;DHT22;32083;47.360;9.650;2023-09-19T06:07:45;17.00;99.90
46378;DHT22;32083;47.360;9.650;2023-09-19T06:10:12;17.00;99.90
46378;DHT22;32083;47.360;9.650;2023-09-19T06:12:41;17.10;99.90
46378;DHT22;32083;47.360;9.650;2023-09-19T06:15:09;17.00;99.90
46378;DHT22;32083;47.360;9.650;2023-09-19T06:17:38;17.00;99.90
46378;DHT22;32083;47.360;9.650;2023-09-19T06:20:05;17.00;99.90
46378;DHT22;32083;47.360;9.650;2023-09-19T06:22:39;17.10;99.90
46378;DHT22;32083;47.360;9.650;2023-09-19T06:25:11;17.10;99.90
46378;DHT22;32083;47.360;9.650;2023-09-19T06:27:40;17.10;99.90
46378;DHT22;32083;47.360;9.650;2023-09-19T06:30:11;17.10;99.90
46378;DHT22;32083;47.360;9.650;2023-09-19T06:32:38;17.10;99.90
46378;DHT22;32083;47.360;9.650;2023-09-19T06:35:04;17.10;99.90
46378;DHT22;32083;47.360;9.650;2023-09-19T06:37:33;17.10;99.90
46378;DHT22;32083;47.360;9.650;2023-09-19T06:40:00;17.10;99.90
46378;DHT22;32083;47.360;9.650;2023-09-19T06:42:26;17.20;99.90
46378;DHT22;32083;47.360;9.650;2023-09-19T06:44:53;17.20;99.90
46378;DHT22;32083;47.360;9.650;2023-09-19T06:47:19;17.30;99.90
46378;DHT22;32083;47.360;9.650;2023-09-19T06:49:46;17.30;99.90
46378;DHT22;32083;47.360;9.650;2023-09-19T06:52:13;17.30;99.90
46378;DHT22;32083;47.360;9.650;2023-09-19T06:54:40;17.40;99.90
46378;DHT22;32083;47.360;9.650;2023-09-19T06:57:07;17.40;99.90
46378;DHT22;32083;47.360;9.650;2023-09-19T06:59:35;17.40;99.90
46378;DHT22;32083;47.360;9.650;2023-09-19T07:02:02;17.50;99.90
46378;DHT22;32083;47.360;9.650;2023-09-19T07:04:31;17.50;99.90
46378;DHT22;32083;47.360;9.650;2023-09-19T07:06:58;17.60;99.90
46378;DHT22;32083;47.360;9.650;2023-09-19T07:09:24;17.60;99.90
46378;DHT22;32083;47.360;9.650;2023-09-19T07:11:53;17.60;99.90
46378;DHT22;32083;47.360;9.650;2023-09-19T07:14:19;17.50;99.90
46378;DHT22;32083;47.360;9.650;2023-09-19T07:16:45;17.50;99.90
46378;DHT22;32083;47.360;9.650;2023-09-19T07:19:13;17.50;99.90
46378;DHT22;32083;47.360;9.650;2023-09-19T07:21:40;17.50;99.90
46378;DHT22;32083;47.360;9.650;2023-09-19T07:24:08;17.50;99.90
46378;DHT22;32083;47.360;9.650;2023-09-19T07:26:34;17.60;99.90
46378;DHT22;32083;47.360;9.650;2023-09-19T07:29:00;17.60;99.90
46378;DHT22;32083;47.360;9.650;2023-09-19T07:31:29;17.70;99.90
46378;DHT22;32083;47.360;9.650;2023-09-19T07:33:56;17.70;99.90
46378;DHT22;32083;47.360;9.650;2023-09-19T07:36:22;17.80;99.90
46378;DHT22;32083;47.360;9.650;2023-09-19T07:38:50;17.90;99.90
46378;DHT22;32083;47.360;9.650;2023-09-19T07:41:16;18.00;99.90
46378;DHT22;32083;47.360;9.650;2023-09-19T07:43:41;18.00;99.90
46378;DHT22;32083;47.360;9.650;2023-09-19T07:46:09;18.10;99.90
46378;DHT22;32083;47.360;9.650;2023-09-19T07:48:35;18.10;99.90
46378;DHT22;32083;47.360;9.650;2023-09-19T07:51:05;18.10;99.90
46378;DHT22;32083;47.360;9.650;2023-09-19T07:53:32;18.20;99.90
46378;DHT22;32083;47.360;9.650;2023-09-19T07:56:07;18.30;99.90
46378;DHT22;32083;47.360;9.650;2023-09-19T07:58:34;18.30;99.90
46378;DHT22;32083;47.360;9.650;2023-09-19T08:01:05;18.30;99.90
46378;DHT22;32083;47.360;9.650;2023-09-19T08:03:33;18.30;99.90
46378;DHT22;32083;47.360;9.650;2023-09-19T08:06:00;18.30;99.90
46378;DHT22;32083;47.360;9.650;2023-09-19T08:08:27;18.30;99.90
46378;DHT22;32083;47.360;9.650;2023-09-19T08:10:56;18.30;99.90
46378;DHT22;32083;47.360;9.650;2023-09-19T08:13:26;18.30;99.90
46378;DHT22;32083;47.360;9.650;2023-09-19T08:15:52;18.40;99.90
46378;DHT22;32083;47.360;9.650;2023-09-19T08:18:19;18.40;99.90
46378;DHT22;32083;47.360;9.650;2023-09-19T08:20:51;18.50;99.90
46378;DHT22;32083;47.360;9.650;2023-09-19T08:23:17;18.50;99.90
46378;DHT22;32083;47.360;9.650;2023-09-19T08:25:46;18.60;99.90
46378;DHT22;32083;47.360;9.650;2023-09-19T08:28:12;18.70;99.90
46378;DHT22;32083;47.360;9.650;2023-09-19T08:30:43;18.70;99.90
46378;DHT22;32083;47.360;9.650;2023-09-19T08:33:09;18.70;99.90
46378;DHT22;32083;47.360;9.650;2023-09-19T08:35:36;18.80;99.90
46378;DHT22;32083;47.360;9.650;2023-09-19T08:38:03;18.90;99.90
46378;DHT22;32083;47.360;9.650;2023-09-19T08:40:37;19.00;99.90
46378;DHT22;32083;47.360;9.650;2023-09-19T08:43:06;19.00;99.90
46378;DHT22;32083;47.360;9.650;2023-09-19T08:45:33;19.00;99.90
46378;DHT22;32083;47.360;9.650;2023-09-19T08:48:27;19.10;99.90
46378;DHT22;32083;47.360;9.650;2023-09-19T08:51:00;19.20;99.90
46378;DHT22;32083;47.360;9.650;2023-09-19T08:56:11;19.30;99.90
46378;DHT22;32083;47.360;9.650;2023-09-19T08:58:59;19.30;99.90
46378;DHT22;32083;47.360;9.650;2023-09-19T09:01:29;19.20;99.90
46378;DHT22;32083;47.360;9.650;2023-09-19T09:03:58;19.10;99.90
46378;DHT22;32083;47.360;9.650;2023-09-19T09:06:25;19.10;99.90
46378;DHT22;32083;47.360;9.650;2023-09-19T09:08:51;19.20;99.90
46378;DHT22;32083;47.360;9.650;2023-09-19T09:11:18;19.20;99.90
46378;DHT22;32083;47.360;9.650;2023-09-19T09:13:45;19.20;99.90
46378;DHT22;32083;47.360;9.650;2023-09-19T09:16:12;19.20;99.90
46378;DHT22;32083;47.360;9.650;2023-09-19T09:18:39;19.20;99.90
46378;DHT22;32083;47.360;9.650;2023-09-19T09:21:06;19.20;99.90
46378;DHT22;32083;47.360;9.650;2023-09-19T09:23:32;19.30;99.90
46378;DHT22;32083;47.360;9.650;2023-09-19T09:25:59;19.40;99.90
46378;DHT22;32083;47.360;9.650;2023-09-19T09:28:30;19.50;99.90
46378;DHT22;32083;47.360;9.650;2023-09-19T09:30:57;19.60;99.90
46378;DHT22;32083;47.360;9.650;2023-09-19T09:33:24;19.60;99.70
46378;DHT22;32083;47.360;9.650;2023-09-19T09:35:55;19.60;98.30
46378;DHT22;32083;47.360;9.650;2023-09-19T09:38:29;19.50;98.20
46378;DHT22;32083;47.360;9.650;2023-09-19T09:40:59;19.50;99.00
46378;DHT22;32083;47.360;9.650;2023-09-19T09:43:32;19.50;98.40
46378;DHT22;32083;47.360;9.650;2023-09-19T09:51:50;19.50;99.10
46378;DHT22;32083;47.360;9.650;2023-09-19T09:54:27;19.50;99.00
46378;DHT22;32083;47.360;9.650;2023-09-19T09:57:00;19.60;99.50
46378;DHT22;32083;47.360;9.650;2023-09-19T10:02:14;19.60;98.10
46378;DHT22;32083;47.360;9.650;2023-09-19T10:04:46;19.50;97.50
46378;DHT22;32083;47.360;9.650;2023-09-19T10:07:28;19.50;97.80
46378;DHT22;32083;47.360;9.650;2023-09-19T10:09:59;19.60;97.90
46378;DHT22;32083;47.360;9.650;2023-09-19T10:12:38;19.60;96.70
46378;DHT22;32083;47.360;9.650;2023-09-19T10:15:05;19.50;96.70
46378;DHT22;32083;47.360;9.650;2023-09-19T10:17:34;19.60;96.80
46378;DHT22;32083;47.360;9.650;2023-09-19T10:20:02;19.60;96.40
46378;DHT22;32083;47.360;9.650;2023-09-19T10:22:39;19.50;96.60
46378;DHT22;32083;47.360;9.650;2023-09-19T10:25:08;19.60;96.60
46378;DHT22;32083;47.360;9.650;2023-09-19T10:27:35;19.60;96.40
46378;DHT22;32083;47.360;9.650;2023-09-19T10:30:06;19.60;96.90
46378;DHT22;32083;47.360;9.650;2023-09-19T10:32:35;19.60;95.90
46378;DHT22;32083;47.360;9.650;2023-09-19T10:35:02;19.60;96.90
46378;DHT22;32083;47.360;9.650;2023-09-19T10:37:32;19.80;96.70
46378;DHT22;32083;47.360;9.650;2023-09-19T10:39:59;19.90;96.50
46378;DHT22;32083;47.360;9.650;2023-09-19T10:42:27;20.00;97.50
46378;DHT22;32083;47.360;9.650;2023-09-19T10:44:55;20.10;96.50
46378;DHT22;32083;47.360;9.650;2023-09-19T10:47:26;20.10;96.00
46378;DHT22;32083;47.360;9.650;2023-09-19T10:49:52;20.20;97.00
46378;DHT22;32083;47.360;9.650;2023-09-19T10:52:24;20.20;97.30
46378;DHT22;32083;47.360;9.650;2023-09-19T10:54:54;20.30;97.10
46378;DHT22;32083;47.360;9.650;2023-09-19T10:57:23;20.40;97.50
46378;DHT22;32083;47.360;9.650;2023-09-19T11:00:06;20.50;95.50
46378;DHT22;32083;47.360;9.650;2023-09-19T11:05:38;20.60;96.90
46378;DHT22;32083;47.360;9.650;2023-09-19T11:08:09;20.60;95.70
46378;DHT22;32083;47.360;9.650;2023-09-19T11:10:47;20.60;95.60
46378;DHT22;32083;47.360;9.650;2023-09-19T11:13:33;20.50;95.10
46378;DHT22;32083;47.360;9.650;2023-09-19T11:16:04;20.60;95.80
46378;DHT22;32083;47.360;9.650;2023-09-19T11:26:48;21.00;95.30
46378;DHT22;32083;47.360;9.650;2023-09-19T11:29:27;21.10;95.70
46378;DHT22;32083;47.360;9.650;2023-09-19T11:31:55;21.10;95.00
46378;DHT22;32083;47.360;9.650;2023-09-19T11:40:09;21.30;95.90
46378;DHT22;32083;47.360;9.650;2023-09-19T11:42:43;21.30;95.50
46378;DHT22;32083;47.360;9.650;2023-09-19T11:48:23;21.40;94.20
46378;DHT22;32083;47.360;9.650;2023-09-19T11:50:55;21.50;94.70
46378;DHT22;32083;47.360;9.650;2023-09-19T11:53:23;21.50;93.50
46378;DHT22;32083;47.360;9.650;2023-09-19T11:55:52;21.60;94.20
46378;DHT22;32083;47.360;9.650;2023-09-19T11:58:19;21.70;94.60
46378;DHT22;32083;47.360;9.650;2023-09-19T12:00:54;21.70;94.30
46378;DHT22;32083;47.360;9.650;2023-09-19T12:03:21;21.60;92.70
46378;DHT22;32083;47.360;9.650;2023-09-19T12:05:48;21.50;93.90
46378;DHT22;32083;47.360;9.650;2023-09-19T12:08:20;21.50;93.40
46378;DHT22;32083;47.360;9.650;2023-09-19T12:10:53;21.50;93.90
46378;DHT22;32083;47.360;9.650;2023-09-19T12:23:40;21.50;93.40
46378;DHT22;32083;47.360;9.650;2023-09-19T12:37:02;21.50;93.70
46378;DHT22;32083;47.360;9.650;2023-09-19T12:39:29;21.60;93.20
46378;DHT22;32083;47.360;9.650;2023-09-19T12:41:55;21.60;92.40
46378;DHT22;32083;47.360;9.650;2023-09-19T12:44:22;21.60;93.20
46378;DHT22;32083;47.360;9.650;2023-09-19T12:46:50;21.60;92.00
46378;DHT22;32083;47.360;9.650;2023-09-19T12:49:20;21.60;92.60
46378;DHT22;32083;47.360;9.650;2023-09-19T12:51:47;21.70;92.70
46378;DHT22;32083;47.360;9.650;2023-09-19T12:54:13;21.70;92.80
46378;DHT22;32083;47.360;9.650;2023-09-19T12:56:46;21.80;92.90
46378;DHT22;32083;47.360;9.650;2023-09-19T12:59:14;21.80;93.40
46378;DHT22;32083;47.360;9.650;2023-09-19T13:01:44;21.90;93.20
46378;DHT22;32083;47.360;9.650;2023-09-19T13:04:16;22.00;93.20
46378;DHT22;32083;47.360;9.650;2023-09-19T13:06:46;22.00;93.00
46378;DHT22;32083;47.360;9.650;2023-09-19T13:09:15;22.20;92.50
46378;DHT22;32083;47.360;9.650;2023-09-19T13:11:42;22.20;91.60
46378;DHT22;32083;47.360;9.650;2023-09-19T13:14:22;22.50;93.40
46378;DHT22;32083;47.360;9.650;2023-09-19T13:17:09;22.60;92.40
46378;DHT22;32083;47.360;9.650;2023-09-19T13:19:54;22.80;92.50
46378;DHT22;32083;47.360;9.650;2023-09-19T13:22:42;22.80;92.70
46378;DHT22;32083;47.360;9.650;2023-09-19T13:25:10;22.90;91.30
46378;DHT22;32083;47.360;9.650;2023-09-19T13:30:18;23.00;91.20
46378;DHT22;32083;47.360;9.650;2023-09-19T13:32:44;23.00;91.30
46378;DHT22;32083;47.360;9.650;2023-09-19T13:35:13;23.00;91.70
46378;DHT22;32083;47.360;9.650;2023-09-19T13:37:41;23.10;91.30
46378;DHT22;32083;47.360;9.650;2023-09-19T13:40:08;23.20;91.20
46378;DHT22;32083;47.360;9.650;2023-09-19T13:42:35;23.30;91.80
46378;DHT22;32083;47.360;9.650;2023-09-19T13:45:03;23.40;91.80
46378;DHT22;32083;47.360;9.650;2023-09-19T13:47:30;23.60;90.30
46378;DHT22;32083;47.360;9.650;2023-09-19T13:49:56;23.60;91.60
46378;DHT22;32083;47.360;9.650;2023-09-19T13:52:22;23.70;91.40
46378;DHT22;32083;47.360;9.650;2023-09-19T13:54:52;23.70;90.90
46378;DHT22;32083;47.360;9.650;2023-09-19T13:57:18;23.60;89.00
46378;DHT22;32083;47.360;9.650;2023-09-19T13:59:44;23.50;90.10
46378;DHT22;32083;47.360;9.650;2023-09-19T14:02:10;23.30;90.50
46378;DHT22;32083;47.360;9.650;2023-09-19T14:04:37;23.20;90.40
46378;DHT22;32083;47.360;9.650;2023-09-19T14:07:03;23.20;90.30
46378;DHT22;32083;47.360;9.650;2023-09-19T14:09:29;23.20;89.30
46378;DHT22;32083;47.360;9.650;2023-09-19T14:11:55;23.20;90.30
46378;DHT22;32083;47.360;9.650;2023-09-19T14:14:21;23.10;90.00
46378;DHT22;32083;47.360;9.650;2023-09-19T14:16:47;23.10;89.60
46378;DHT22;32083;47.360;9.650;2023-09-19T14:19:14;23.30;90.10
46378;DHT22;32083;47.360;9.650;2023-09-19T14:21:42;23.30;90.40
46378;DHT22;32083;47.360;9.650;2023-09-19T14:24:08;23.40;90.20
46378;DHT22;32083;47.360;9.650;2023-09-19T14:26:41;23.30;90.50
46378;DHT22;32083;47.360;9.650;2023-09-19T14:29:07;23.30;89.30
46378;DHT22;32083;47.360;9.650;2023-09-19T14:31:38;23.30;90.40
46378;DHT22;32083;47.360;9.650;2023-09-19T14:34:05;23.30;91.00
46378;DHT22;32083;47.360;9.650;2023-09-19T14:36:32;23.30;90.00
46378;DHT22;32083;47.360;9.650;2023-09-19T14:38:59;23.20;90.00
46378;DHT22;32083;47.360;9.650;2023-09-19T14:41:25;23.20;90.80
46378;DHT22;32083;47.360;9.650;2023-09-19T14:43:51;23.30;90.40
46378;DHT22;32083;47.360;9.650;2023-09-19T14:46:18;23.20;90.10
46378;DHT22;32083;47.360;9.650;2023-09-19T14:48:45;23.10;90.10
46378;DHT22;32083;47.360;9.650;2023-09-19T14:51:14;23.10;90.20
46378;DHT22;32083;47.360;9.650;2023-09-19T14:53:40;23.10;90.60
46378;DHT22;32083;47.360;9.650;2023-09-19T14:56:10;23.10;90.60
46378;DHT22;32083;47.360;9.650;2023-09-19T14:58:37;23.10;90.00
46378;DHT22;32083;47.360;9.650;2023-09-19T15:01:08;23.10;90.00
46378;DHT22;32083;47.360;9.650;2023-09-19T15:03:36;23.10;90.80
46378;DHT22;32083;47.360;9.650;2023-09-19T15:06:12;23.10;89.40
46378;DHT22;32083;47.360;9.650;2023-09-19T15:08:44;23.10;89.10
46378;DHT22;32083;47.360;9.650;2023-09-19T15:11:14;23.00;89.10
46378;DHT22;32083;47.360;9.650;2023-09-19T15:13:43;22.90;89.70
46378;DHT22;32083;47.360;9.650;2023-09-19T15:16:10;23.00;90.30
46378;DHT22;32083;47.360;9.650;2023-09-19T15:18:37;23.10;91.60
46378;DHT22;32083;47.360;9.650;2023-09-19T15:21:05;23.10;91.80
46378;DHT22;32083;47.360;9.650;2023-09-19T15:23:32;23.10;91.60
46378;DHT22;32083;47.360;9.650;2023-09-19T15:26:07;23.20;90.00
46378;DHT22;32083;47.360;9.650;2023-09-19T15:28:34;23.10;89.90
46378;DHT22;32083;47.360;9.650;2023-09-19T15:31:05;23.10;90.60
46378;DHT22;32083;47.360;9.650;2023-09-19T15:33:31;23.10;90.10
46378;DHT22;32083;47.360;9.650;2023-09-19T15:36:08;23.00;90.00
46378;DHT22;32083;47.360;9.650;2023-09-19T15:39:02;23.10;90.30
46378;DHT22;32083;47.360;9.650;2023-09-19T15:41:31;23.10;90.20
46378;DHT22;32083;47.360;9.650;2023-09-19T15:43:59;23.10;91.50
46378;DHT22;32083;47.360;9.650;2023-09-19T15:46:27;23.00;90.10
46378;DHT22;32083;47.360;9.650;2023-09-19T15:48:53;23.10;90.60
46378;DHT22;32083;47.360;9.650;2023-09-19T15:51:19;23.00;90.10
46378;DHT22;32083;47.360;9.650;2023-09-19T15:53:47;23.00;89.00
46378;DHT22;32083;47.360;9.650;2023-09-19T15:56:14;23.00;90.10
46378;DHT22;32083;47.360;9.650;2023-09-19T15:58:41;23.00;89.30
46378;DHT22;32083;47.360;9.650;2023-09-19T16:01:07;23.00;91.00
46378;DHT22;32083;47.360;9.650;2023-09-19T16:03:37;22.80;90.60
46378;DHT22;32083;47.360;9.650;2023-09-19T16:06:14;22.70;91.20
46378;DHT22;32083;47.360;9.650;2023-09-19T16:08:45;22.60;91.20
46378;DHT22;32083;47.360;9.650;2023-09-19T16:11:12;22.60;91.80
46378;DHT22;32083;47.360;9.650;2023-09-19T16:13:39;22.60;91.40
46378;DHT22;32083;47.360;9.650;2023-09-19T16:16:08;22.50;91.70
46378;DHT22;32083;47.360;9.650;2023-09-19T16:18:38;22.50;91.60
46378;DHT22;32083;47.360;9.650;2023-09-19T16:21:05;22.40;92.20
46378;DHT22;32083;47.360;9.650;2023-09-19T16:23:33;22.30;92.20
46378;DHT22;32083;47.360;9.650;2023-09-19T16:26:05;22.20;92.40
46378;DHT22;32083;47.360;9.650;2023-09-19T16:28:37;22.10;92.70
46378;DHT22;32083;47.360;9.650;2023-09-19T16:31:04;22.10;93.10
46378;DHT22;32083;47.360;9.650;2023-09-19T16:33:33;22.10;92.70
46378;DHT22;32083;47.360;9.650;2023-09-19T16:36:00;22.10;92.40
46378;DHT22;32083;47.360;9.650;2023-09-19T16:38:27;22.10;92.90
46378;DHT22;32083;47.360;9.650;2023-09-19T16:40:56;22.10;92.60
46378;DHT22;32083;47.360;9.650;2023-09-19T16:43:24;22.00;93.20
46378;DHT22;32083;47.360;9.650;2023-09-19T16:45:58;22.00;93.50
46378;DHT22;32083;47.360;9.650;2023-09-19T16:48:25;22.00;93.80
46378;DHT22;32083;47.360;9.650;2023-09-19T16:50:53;21.90;93.70
46378;DHT22;32083;47.360;9.650;2023-09-19T16:53:19;21.80;93.50
46378;DHT22;32083;47.360;9.650;2023-09-19T16:55:49;21.70;93.30
46378;DHT22;32083;47.360;9.650;2023-09-19T16:58:15;21.70;93.30
46378;DHT22;32083;47.360;9.650;2023-09-19T17:00:42;21.60;93.60
46378;DHT22;32083;47.360;9.650;2023-09-19T17:03:09;21.60;93.60
46378;DHT22;32083;47.360;9.650;2023-09-19T17:05:37;21.60;94.30
46378;DHT22;32083;47.360;9.650;2023-09-19T17:08:09;21.50;93.80
46378;DHT22;32083;47.360;9.650;2023-09-19T17:10:37;21.50;94.10
46378;DHT22;32083;47.360;9.650;2023-09-19T17:13:04;21.40;94.20
46378;DHT22;32083;47.360;9.650;2023-09-19T17:15:31;21.30;94.30
46378;DHT22;32083;47.360;9.650;2023-09-19T17:17:57;21.20;94.60
46378;DHT22;32083;47.360;9.650;2023-09-19T17:20:24;21.20;94.60
46378;DHT22;32083;47.360;9.650;2023-09-19T17:22:50;21.20;94.70
46378;DHT22;32083;47.360;9.650;2023-09-19T17:25:16;21.20;94.90
46378;DHT22;32083;47.360;9.650;2023-09-19T17:27:42;21.10;95.20
46378;DHT22;32083;47.360;9.650;2023-09-19T17:30:10;21.10;95.20
46378;DHT22;32083;47.360;9.650;2023-09-19T17:32:45;21.00;95.40
46378;DHT22;32083;47.360;9.650;2023-09-19T17:35:13;20.90;95.50
46378;DHT22;32083;47.360;9.650;2023-09-19T17:37:46;20.80;95.50
46378;DHT22;32083;47.360;9.650;2023-09-19T17:40:12;20.70;95.70
46378;DHT22;32083;47.360;9.650;2023-09-19T17:42:41;20.60;95.40
46378;DHT22;32083;47.360;9.650;2023-09-19T17:45:11;20.60;95.20
46378;DHT22;32083;47.360;9.650;2023-09-19T17:47:42;20.50;95.00
46378;DHT22;32083;47.360;9.650;2023-09-19T17:50:08;20.40;95.00
46378;DHT22;32083;47.360;9.650;2023-09-19T17:52:39;20.40;95.20
46378;DHT22;32083;47.360;9.650;2023-09-19T17:55:06;20.40;95.80
46378;DHT22;32083;47.360;9.650;2023-09-19T17:57:32;20.40;95.90
46378;DHT22;32083;47.360;9.650;2023-09-19T17:59:59;20.30;96.00
46378;DHT22;32083;47.360;9.650;2023-09-19T18:02:25;20.30;96.00
46378;DHT22;32083;47.360;9.650;2023-09-19T18:04:51;20.30;96.10
46378;DHT22;32083;47.360;9.650;2023-09-19T18:07:17;20.20;95.80
46378;DHT22;32083;47.360;9.650;2023-09-19T18:09:43;20.20;96.40
46378;DHT22;32083;47.360;9.650;2023-09-19T18:12:09;20.10;96.50
46378;DHT22;32083;47.360;9.650;2023-09-19T18:14:35;20.10;96.60
46378;DHT22;32083;47.360;9.650;2023-09-19T18:17:01;20.00;96.60
46378;DHT22;32083;47.360;9.650;2023-09-19T18:19:27;20.00;96.70
46378;DHT22;32083;47.360;9.650;2023-09-19T18:21:53;19.90;97.00
46378;DHT22;32083;47.360;9.650;2023-09-19T18:24:20;19.80;97.00
46378;DHT22;32083;47.360;9.650;2023-09-19T18:26:46;19.70;97.00
46378;DHT22;32083;47.360;9.650;2023-09-19T18:29:12;19.60;97.30
46378;DHT22;32083;47.360;9.650;2023-09-19T18:31:38;19.60;97.40
46378;DHT22;32083;47.360;9.650;2023-09-19T18:34:04;19.50;97.60
46378;DHT22;32083;47.360;9.650;2023-09-19T18:36:32;19.50;97.60
46378;DHT22;32083;47.360;9.650;2023-09-19T18:39:00;19.40;97.80
46378;DHT22;32083;47.360;9.650;2023-09-19T18:41:26;19.40;97.60
46378;DHT22;32083;47.360;9.650;2023-09-19T18:43:52;19.40;97.70
46378;DHT22;32083;47.360;9.650;2023-09-19T18:46:18;19.40;97.80
46378;DHT22;32083;47.360;9.650;2023-09-19T18:48:44;19.30;98.10